Time;durP1;ratioP1;P1;durP2;ratioP2;P2;SDS_P1;SDS_P2;PMS_P1;PMS_P2;Temp;Humidity;BMP_temperature;BMP_pressure;BME280_temperature;BME280_humidity;BME280_pressure;Samples;Min_cycle;Max_cycle;Signal;HPM_P1;HPM_P2
2022/08/29 00:00:44;;;;;;;0.63;0.40;;;;;;;;;;5062200;28;20583;-60
2022/08/29 00:03:11;;;;;;;0.60;0.50;;;;;;;;;;5065447;28;20213;-60
2022/08/29 00:05:38;;;;;;;2.40;0.50;;;;;;;;;;5058983;28;20358;-61
2022/08/29 00:08:06;;;;;;;0.30;0.30;;;;;;;;;;5054956;28;20203;-61
2022/08/29 00:10:33;;;;;;;0.73;0.60;;;;;;;;;;5064662;28;20206;-60
2022/08/29 00:13:02;;;;;;;0.82;0.50;;;;;;;;;;5054152;28;20289;-60
2022/08/29 00:15:29;;;;;;;0.50;0.47;;;;;;;;;;5049664;28;20597;-60
2022/08/29 00:17:56;;;;;;;1.00;0.77;;;;;;;;;;5060013;28;20229;-61
2022/08/29 00:20:25;;;;;;;1.02;0.55;;;;;;;;;;5060311;28;20269;-60
2022/08/29 00:22:52;;;;;;;0.85;0.70;;;;;;;;;;5050923;28;20327;-61
2022/08/29 00:25:19;;;;;;;0.35;0.35;;;;;;;;;;5068479;28;20586;-61
2022/08/29 00:27:46;;;;;;;0.50;0.50;;;;;;;;;;5066562;28;20210;-61
2022/08/29 00:30:15;;;;;;;2.67;0.40;;;;;;;;;;5069382;28;20652;-61
2022/08/29 00:32:42;;;;;;;2.97;0.50;;;;;;;;;;5059965;28;20243;-61
2022/08/29 00:35:10;;;;;;;0.50;0.50;;;;;;;;;;5051045;28;20656;-61
2022/08/29 00:37:37;;;;;;;0.52;0.40;;;;;;;;;;5058363;28;20208;-62
2022/08/29 00:40:05;;;;;;;0.28;0.28;;;;;;;;;;5049368;28;20285;-61
2022/08/29 00:42:34;;;;;;;0.60;0.60;;;;;;;;;;5054608;28;20666;-62
2022/08/29 00:45:01;;;;;;;1.75;0.40;;;;;;;;;;5065140;28;20202;-61
2022/08/29 00:47:31;;;;;;;0.75;0.40;;;;;;;;;;5062923;28;20200;-61
2022/08/29 00:49:59;;;;;;;1.20;0.30;;;;;;;;;;5049473;28;20211;-61
2022/08/29 00:52:28;;;;;;;1.08;0.55;;;;;;;;;;5052880;28;20665;-60
2022/08/29 00:54:56;;;;;;;0.60;0.60;;;;;;;;;;5058037;28;20567;-61
2022/08/29 00:57:24;;;;;;;0.30;0.30;;;;;;;;;;5065042;28;20212;-61
2022/08/29 00:59:52;;;;;;;0.40;0.40;;;;;;;;;;5053413;28;20254;-61
2022/08/29 01:02:19;;;;;;;0.50;0.32;;;;;;;;;;5050802;28;20215;-59
2022/08/29 01:04:48;;;;;;;1.30;0.70;;;;;;;;;;5064059;28;20672;-61
2022/08/29 01:07:15;;;;;;;1.95;0.32;;;;;;;;;;5063083;28;20284;-61
2022/08/29 01:09:45;;;;;;;0.38;0.38;;;;;;;;;;5067107;28;20203;-59
2022/08/29 01:12:14;;;;;;;0.60;0.60;;;;;;;;;;5056366;28;20208;-59
2022/08/29 01:14:46;;;;;;;0.75;0.50;;;;;;;;;;5059595;28;20203;-58
2022/08/29 01:17:15;;;;;;;0.30;0.30;;;;;;;;;;5047584;28;20284;-58
2022/08/29 01:19:45;;;;;;;1.40;0.47;;;;;;;;;;5048418;28;20204;-58
2022/08/29 01:22:36;;;;;;;0.73;0.30;;;;;;;;;;5048124;28;20239;-59
2022/08/29 01:25:07;;;;;;;0.40;0.40;;;;;;;;;;5037601;28;20287;-60
2022/08/29 01:27:37;;;;;;;1.35;0.47;;;;;;;;;;5049588;28;20207;-59
2022/08/29 01:30:05;;;;;;;1.45;0.25;;;;;;;;;;5048710;28;20211;-58
2022/08/29 01:32:32;;;;;;;0.40;0.40;;;;;;;;;;5053862;28;20214;-60
2022/08/29 01:34:59;;;;;;;0.30;0.30;;;;;;;;;;5048453;28;20227;-59
2022/08/29 01:37:29;;;;;;;1.25;0.45;;;;;;;;;;5056909;28;20198;-58
2022/08/29 01:39:56;;;;;;;0.73;0.70;;;;;;;;;;5049714;28;20238;-59
2022/08/29 01:42:24;;;;;;;0.70;0.30;;;;;;;;;;5060607;28;20267;-59
2022/08/29 01:44:52;;;;;;;0.52;0.40;;;;;;;;;;5066437;28;20731;-59
2022/08/29 01:47:20;;;;;;;0.98;0.68;;;;;;;;;;5056404;28;20206;-58
2022/08/29 01:49:47;;;;;;;0.30;0.30;;;;;;;;;;5048245;28;20273;-59
2022/08/29 01:52:14;;;;;;;0.88;0.55;;;;;;;;;;5062038;28;20219;-60
2022/08/29 01:54:42;;;;;;;0.25;0.20;;;;;;;;;;5055352;28;20250;-59
2022/08/29 01:57:09;;;;;;;0.80;0.45;;;;;;;;;;5052438;28;20208;-59
2022/08/29 01:59:38;;;;;;;0.35;0.35;;;;;;;;;;5058846;28;20226;-58
2022/08/29 02:02:08;;;;;;;0.55;0.55;;;;;;;;;;5057910;28;20272;-59
2022/08/29 02:04:35;;;;;;;0.52;0.52;;;;;;;;;;5062883;28;20203;-59
2022/08/29 02:07:02;;;;;;;0.20;0.20;;;;;;;;;;5062575;28;20227;-59
2022/08/29 02:09:30;;;;;;;0.95;0.35;;;;;;;;;;5051294;28;20207;-59
2022/08/29 02:12:04;;;;;;;2.13;0.77;;;;;;;;;;5051949;28;20579;-58
2022/08/29 02:14:32;;;;;;;0.70;0.70;;;;;;;;;;5059456;28;20314;-59
2022/08/29 02:17:05;;;;;;;1.23;0.73;;;;;;;;;;5060902;28;20210;-59
2022/08/29 02:19:32;;;;;;;3.92;0.52;;;;;;;;;;5061430;28;20211;-58
2022/08/29 02:22:01;;;;;;;0.50;0.50;;;;;;;;;;5060828;28;20239;-59
2022/08/29 02:24:28;;;;;;;0.38;0.38;;;;;;;;;;5060398;28;20290;-59
2022/08/29 02:26:56;;;;;;;0.57;0.50;;;;;;;;;;5061489;28;20207;-58
2022/08/29 02:29:24;;;;;;;0.82;0.50;;;;;;;;;;5061146;28;20623;-59
2022/08/29 02:31:51;;;;;;;1.58;0.40;;;;;;;;;;5061051;28;20268;-58
2022/08/29 02:34:20;;;;;;;0.50;0.50;;;;;;;;;;5060866;28;20903;-59
2022/08/29 02:36:47;;;;;;;0.85;0.30;;;;;;;;;;5060599;28;20556;-59
2022/08/29 02:39:14;;;;;;;0.60;0.60;;;;;;;;;;5058987;28;20289;-59
2022/08/29 02:41:41;;;;;;;1.38;0.50;;;;;;;;;;5059467;28;20219;-59
2022/08/29 02:44:08;;;;;;;0.30;0.30;;;;;;;;;;5062138;28;20199;-60
2022/08/29 02:46:37;;;;;;;0.45;0.45;;;;;;;;;;5059195;28;20218;-60
2022/08/29 02:49:04;;;;;;;0.65;0.47;;;;;;;;;;5054877;28;20291;-59
2022/08/29 02:51:33;;;;;;;3.92;0.68;;;;;;;;;;5060457;28;20218;-59
2022/08/29 02:54:01;;;;;;;1.20;0.45;;;;;;;;;;5062063;28;20226;-59
2022/08/29 02:56:29;;;;;;;0.73;0.40;;;;;;;;;;5059598;28;20204;-59
2022/08/29 02:58:57;;;;;;;0.93;0.57;;;;;;;;;;5060111;28;20229;-59
2022/08/29 03:01:24;;;;;;;0.85;0.45;;;;;;;;;;5060450;28;20212;-59
2022/08/29 03:03:52;;;;;;;0.40;0.40;;;;;;;;;;5059971;28;20203;-59
2022/08/29 03:06:20;;;;;;;0.73;0.35;;;;;;;;;;5059197;28;20203;-59
2022/08/29 03:08:48;;;;;;;1.58;0.60;;;;;;;;;;5059255;28;20221;-59
2022/08/29 03:11:16;;;;;;;2.08;0.75;;;;;;;;;;5059578;28;20281;-60
2022/08/29 03:13:43;;;;;;;1.85;0.40;;;;;;;;;;5060473;28;20251;-60
2022/08/29 03:16:10;;;;;;;0.38;0.38;;;;;;;;;;5059945;28;20763;-60
2022/08/29 03:18:38;;;;;;;0.38;0.38;;;;;;;;;;5062001;28;20988;-60
2022/08/29 03:21:05;;;;;;;2.83;0.55;;;;;;;;;;5059699;28;20294;-60
2022/08/29 03:23:32;;;;;;;0.28;0.28;;;;;;;;;;5058640;28;20242;-60
2022/08/29 03:26:01;;;;;;;0.38;0.38;;;;;;;;;;5060406;28;20253;-61
2022/08/29 03:28:28;;;;;;;0.60;0.60;;;;;;;;;;5061179;28;20227;-60
2022/08/29 03:30:55;;;;;;;0.57;0.43;;;;;;;;;;5058494;28;20201;-60
2022/08/29 03:33:22;;;;;;;1.08;0.32;;;;;;;;;;5059618;28;20640;-60
2022/08/29 03:35:49;;;;;;;1.90;0.82;;;;;;;;;;5059102;28;20200;-60
2022/08/29 03:38:16;;;;;;;0.60;0.60;;;;;;;;;;5061215;28;20331;-60
2022/08/29 03:40:43;;;;;;;0.73;0.60;;;;;;;;;;5059366;28;20247;-60
2022/08/29 03:43:12;;;;;;;0.32;0.20;;;;;;;;;;5058030;28;20247;-60
2022/08/29 03:45:39;;;;;;;0.35;0.35;;;;;;;;;;5057412;28;20558;-60
2022/08/29 03:48:06;;;;;;;0.40;0.40;;;;;;;;;;5058819;28;20215;-60
2022/08/29 03:50:34;;;;;;;0.40;0.40;;;;;;;;;;5059187;28;20199;-60
2022/08/29 03:53:01;;;;;;;0.50;0.50;;;;;;;;;;5060073;28;20211;-60
2022/08/29 03:55:28;;;;;;;2.35;0.35;;;;;;;;;;5049073;28;20598;-60
2022/08/29 03:57:55;;;;;;;0.75;0.50;;;;;;;;;;5049043;28;20478;-60
2022/08/29 04:00:24;;;;;;;0.47;0.43;;;;;;;;;;5048526;28;20204;-59
2022/08/29 04:02:52;;;;;;;0.73;0.70;;;;;;;;;;5048400;28;20223;-60
2022/08/29 04:05:20;;;;;;;0.85;0.63;;;;;;;;;;5048610;28;20199;-60
2022/08/29 04:07:49;;;;;;;1.02;0.50;;;;;;;;;;5047677;28;20204;-60
2022/08/29 04:10:18;;;;;;;2.28;0.50;;;;;;;;;;5057147;28;20695;-59
2022/08/29 04:12:45;;;;;;;0.65;0.63;;;;;;;;;;5055992;28;20204;-60
2022/08/29 04:15:13;;;;;;;2.17;0.77;;;;;;;;;;5055661;28;20689;-60
2022/08/29 04:17:41;;;;;;;0.50;0.50;;;;;;;;;;5054532;28;20273;-59
2022/08/29 04:20:09;;;;;;;2.28;0.50;;;;;;;;;;5058628;28;20226;-60
2022/08/29 04:22:37;;;;;;;0.30;0.30;;;;;;;;;;5056896;28;20235;-59
2022/08/29 04:25:05;;;;;;;1.13;0.93;;;;;;;;;;5059713;28;20253;-60
2022/08/29 04:27:32;;;;;;;0.65;0.65;;;;;;;;;;5058777;28;20233;-59
2022/08/29 04:29:59;;;;;;;0.43;0.35;;;;;;;;;;5056773;28;20269;-60
2022/08/29 04:32:26;;;;;;;0.40;0.40;;;;;;;;;;5058706;28;20207;-60
2022/08/29 04:34:57;;;;;;;0.30;0.25;;;;;;;;;;5056010;28;20340;-60
2022/08/29 04:37:24;;;;;;;0.95;0.40;;;;;;;;;;5058014;28;20564;-60
2022/08/29 04:39:51;;;;;;;0.55;0.50;;;;;;;;;;5059798;28;20290;-60
2022/08/29 04:42:19;;;;;;;0.65;0.63;;;;;;;;;;5059709;28;20287;-60
2022/08/29 04:44:46;;;;;;;0.70;0.57;;;;;;;;;;5058907;28;20223;-60
2022/08/29 04:47:13;;;;;;;0.60;0.60;;;;;;;;;;5058461;28;20271;-60
2022/08/29 04:49:41;;;;;;;0.68;0.50;;;;;;;;;;5058514;28;20594;-60
2022/08/29 04:52:10;;;;;;;2.22;0.65;;;;;;;;;;5057601;28;20648;-60
2022/08/29 04:54:37;;;;;;;0.60;0.60;;;;;;;;;;5059209;28;20620;-60
2022/08/29 04:57:04;;;;;;;0.50;0.50;;;;;;;;;;5058182;28;20686;-60
2022/08/29 04:59:31;;;;;;;0.60;0.60;;;;;;;;;;5057430;28;20666;-60
2022/08/29 05:01:59;;;;;;;0.47;0.47;;;;;;;;;;5059672;28;20210;-60
2022/08/29 05:04:26;;;;;;;0.50;0.50;;;;;;;;;;5057563;28;20289;-60
2022/08/29 05:06:53;;;;;;;1.48;0.68;;;;;;;;;;5057701;28;20257;-60
2022/08/29 05:09:22;;;;;;;0.50;0.50;;;;;;;;;;5058602;28;20206;-61
2022/08/29 05:11:49;;;;;;;1.13;0.63;;;;;;;;;;5046874;28;20199;-60
2022/08/29 05:14:16;;;;;;;0.47;0.47;;;;;;;;;;5048049;28;20263;-62
2022/08/29 05:16:43;;;;;;;0.52;0.52;;;;;;;;;;5047380;28;20203;-59
2022/08/29 05:19:10;;;;;;;0.60;0.57;;;;;;;;;;5044735;28;20212;-60
2022/08/29 05:21:38;;;;;;;1.63;0.63;;;;;;;;;;5045796;28;20243;-63
2022/08/29 05:24:06;;;;;;;0.85;0.70;;;;;;;;;;5056410;28;20199;-62
2022/08/29 05:26:36;;;;;;;1.27;1.17;;;;;;;;;;5058933;28;20199;-64
2022/08/29 05:29:03;;;;;;;0.93;0.90;;;;;;;;;;5049887;28;20742;-63
2022/08/29 05:31:30;;;;;;;0.40;0.40;;;;;;;;;;5067050;28;20293;-63
2022/08/29 05:33:58;;;;;;;1.60;0.65;;;;;;;;;;5054940;28;21012;-67
2022/08/29 05:36:25;;;;;;;0.20;0.20;;;;;;;;;;5051975;28;20289;-63
2022/08/29 05:38:53;;;;;;;0.60;0.60;;;;;;;;;;5068774;28;20207;-63
2022/08/29 05:41:20;;;;;;;0.70;0.70;;;;;;;;;;5070181;28;20305;-65
2022/08/29 05:43:49;;;;;;;4.47;0.20;;;;;;;;;;5072263;28;20821;-64
2022/08/29 05:46:16;;;;;;;3.10;0.57;;;;;;;;;;5058858;28;20211;-64
2022/08/29 05:48:43;;;;;;;5.32;0.60;;;;;;;;;;5071991;28;20903;-64
2022/08/29 05:51:15;;;;;;;2.22;0.43;;;;;;;;;;5062577;28;20204;-65
2022/08/29 05:53:42;;;;;;;1.00;0.50;;;;;;;;;;5051549;28;20303;-64
2022/08/29 05:56:09;;;;;;;0.57;0.57;;;;;;;;;;5051620;28;20273;-65
2022/08/29 05:58:36;;;;;;;4.13;1.02;;;;;;;;;;5051661;28;20215;-64
2022/08/29 06:01:04;;;;;;;0.88;0.88;;;;;;;;;;5051567;28;20212;-64
2022/08/29 06:03:31;;;;;;;1.33;0.52;;;;;;;;;;5051773;28;20234;-67
2022/08/29 06:05:58;;;;;;;0.60;0.60;;;;;;;;;;5051311;28;20298;-64
2022/08/29 06:08:25;;;;;;;0.50;0.50;;;;;;;;;;5050956;28;20681;-64
2022/08/29 06:10:52;;;;;;;3.63;0.60;;;;;;;;;;5060950;28;20211;-65
2022/08/29 06:13:19;;;;;;;0.40;0.40;;;;;;;;;;5062162;28;20214;-64
2022/08/29 06:15:46;;;;;;;2.10;0.82;;;;;;;;;;5063494;28;20231;-64
2022/08/29 06:18:15;;;;;;;0.40;0.40;;;;;;;;;;5067969;28;20261;-64
2022/08/29 06:20:42;;;;;;;0.40;0.40;;;;;;;;;;5053886;28;20208;-65
2022/08/29 06:23:09;;;;;;;0.95;0.50;;;;;;;;;;5050833;28;20318;-64
2022/08/29 06:25:36;;;;;;;0.70;0.65;;;;;;;;;;5066092;28;20202;-64
2022/08/29 06:28:03;;;;;;;0.90;0.77;;;;;;;;;;5070605;28;20218;-62
2022/08/29 06:30:31;;;;;;;0.70;0.60;;;;;;;;;;5056548;28;20693;-63
2022/08/29 06:32:58;;;;;;;1.88;0.80;;;;;;;;;;5054542;28;20208;-61
2022/08/29 06:35:27;;;;;;;1.05;0.43;;;;;;;;;;5062292;28;20222;-66
2022/08/29 06:37:54;;;;;;;1.23;0.50;;;;;;;;;;5059597;28;20368;-65
2022/08/29 06:40:21;;;;;;;0.90;0.70;;;;;;;;;;5050519;28;20632;-66
2022/08/29 06:42:48;;;;;;;0.90;0.47;;;;;;;;;;5050711;28;20215;-73
2022/08/29 06:45:15;;;;;;;0.68;0.68;;;;;;;;;;5050094;28;20211;-64
2022/08/29 06:47:42;;;;;;;1.33;0.88;;;;;;;;;;5067100;28;20214;-64
2022/08/29 06:50:09;;;;;;;0.63;0.30;;;;;;;;;;5053196;28;20204;-64
2022/08/29 06:52:38;;;;;;;0.63;0.63;;;;;;;;;;5055559;28;20211;-65
2022/08/29 06:55:10;;;;;;;0.85;0.65;;;;;;;;;;5056539;28;20235;-64
2022/08/29 06:57:41;;;;;;;0.90;0.90;;;;;;;;;;5050556;28;20200;-64
2022/08/29 07:00:09;;;;;;;0.40;0.40;;;;;;;;;;5064976;28;20243;-64
2022/08/29 07:02:36;;;;;;;0.73;0.63;;;;;;;;;;5067912;28;20215;-65
2022/08/29 07:05:04;;;;;;;0.98;0.98;;;;;;;;;;5069946;28;20214;-64
2022/08/29 07:07:31;;;;;;;0.95;0.70;;;;;;;;;;5069753;28;20685;-64
2022/08/29 07:09:59;;;;;;;1.63;0.70;;;;;;;;;;5065028;28;20208;-64
2022/08/29 07:12:27;;;;;;;5.28;0.85;;;;;;;;;;5049124;28;20290;-65
2022/08/29 07:14:54;;;;;;;0.22;0.22;;;;;;;;;;5048770;28;20615;-65
2022/08/29 07:17:21;;;;;;;1.20;0.73;;;;;;;;;;5053295;28;20231;-64
2022/08/29 07:19:48;;;;;;;0.60;0.60;;;;;;;;;;5049143;28;20212;-65
2022/08/29 07:22:15;;;;;;;1.17;0.98;;;;;;;;;;5068208;28;20793;-63
2022/08/29 07:24:42;;;;;;;1.38;0.60;;;;;;;;;;5068555;28;20222;-64
2022/08/29 07:27:11;;;;;;;1.23;0.82;;;;;;;;;;5058741;28;20597;-64
2022/08/29 07:29:39;;;;;;;3.13;1.08;;;;;;;;;;5048484;28;20702;-64
2022/08/29 07:32:06;;;;;;;1.15;0.73;;;;;;;;;;5048655;28;20310;-63
2022/08/29 07:34:33;;;;;;;0.93;0.80;;;;;;;;;;5048403;28;20245;-64
2022/08/29 07:37:00;;;;;;;1.27;0.70;;;;;;;;;;5048531;28;20219;-65
2022/08/29 07:39:27;;;;;;;0.95;0.88;;;;;;;;;;5058641;28;20214;-64
2022/08/29 07:41:54;;;;;;;1.02;0.93;;;;;;;;;;5056779;28;20269;-65
2022/08/29 07:44:22;;;;;;;1.05;0.75;;;;;;;;;;5058481;28;20215;-64
2022/08/29 07:46:50;;;;;;;0.70;0.70;;;;;;;;;;5068954;28;20215;-64
2022/08/29 07:49:17;;;;;;;0.98;0.85;;;;;;;;;;5068883;28;20230;-64
2022/08/29 07:51:44;;;;;;;0.75;0.73;;;;;;;;;;5061893;28;20210;-64
2022/08/29 07:54:15;;;;;;;0.85;0.85;;;;;;;;;;5048733;28;20212;-64
2022/08/29 07:56:42;;;;;;;2.78;0.50;;;;;;;;;;5047403;28;20237;-64
2022/08/29 07:59:10;;;;;;;0.75;0.60;;;;;;;;;;5049083;28;20310;-64
2022/08/29 08:01:38;;;;;;;1.25;0.70;;;;;;;;;;5051778;28;20264;-63
2022/08/29 08:04:06;;;;;;;0.40;0.40;;;;;;;;;;5068638;28;20631;-64
2022/08/29 08:06:33;;;;;;;1.95;0.80;;;;;;;;;;5068491;28;20210;-63
2022/08/29 08:09:00;;;;;;;2.33;0.80;;;;;;;;;;5068322;28;20218;-64
2022/08/29 08:11:28;;;;;;;0.80;0.70;;;;;;;;;;5064831;28;20257;-64
2022/08/29 08:13:56;;;;;;;0.85;0.85;;;;;;;;;;5048528;28;20214;-64
2022/08/29 08:16:24;;;;;;;0.73;0.73;;;;;;;;;;5050468;28;20235;-64
2022/08/29 08:18:53;;;;;;;0.40;0.40;;;;;;;;;;5067695;28;20284;-62
2022/08/29 08:21:20;;;;;;;1.30;0.73;;;;;;;;;;5065060;28;20218;-64
2022/08/29 08:23:47;;;;;;;0.70;0.70;;;;;;;;;;5048282;28;20204;-63
2022/08/29 08:26:15;;;;;;;1.15;0.70;;;;;;;;;;5048191;28;20207;-62
2022/08/29 08:28:42;;;;;;;2.97;1.08;;;;;;;;;;5047975;28;20261;-64
2022/08/29 08:31:10;;;;;;;0.60;0.57;;;;;;;;;;5048100;28;20211;-64
2022/08/29 08:33:38;;;;;;;1.85;1.00;;;;;;;;;;5066334;28;20203;-66
2022/08/29 08:36:12;;;;;;;1.98;0.75;;;;;;;;;;5067380;28;20230;-63
2022/08/29 08:38:39;;;;;;;0.52;0.52;;;;;;;;;;5047871;28;20670;-64
2022/08/29 08:41:09;;;;;;;1.50;0.45;;;;;;;;;;5066120;28;20215;-63
2022/08/29 08:43:43;;;;;;;3.40;0.90;;;;;;;;;;5048502;28;20212;-63
2022/08/29 08:46:10;;;;;;;0.50;0.50;;;;;;;;;;5048290;28;20208;-63
2022/08/29 08:48:38;;;;;;;0.65;0.65;;;;;;;;;;5067856;28;20213;-64
2022/08/29 08:51:09;;;;;;;0.57;0.57;;;;;;;;;;5067815;28;20207;-63
2022/08/29 08:53:38;;;;;;;1.67;0.70;;;;;;;;;;5050907;28;20212;-62
2022/08/29 08:56:08;;;;;;;2.42;0.85;;;;;;;;;;5047710;28;20318;-63
2022/08/29 08:58:42;;;;;;;0.77;0.77;;;;;;;;;;5047627;28;20215;-65
2022/08/29 09:01:13;;;;;;;0.90;0.80;;;;;;;;;;5047644;28;20215;-65
2022/08/29 09:03:50;;;;;;;0.98;0.80;;;;;;;;;;5063965;28;20394;-64
2022/08/29 09:06:25;;;;;;;0.63;0.63;;;;;;;;;;5067645;28;20202;-65
2022/08/29 09:08:55;;;;;;;0.55;0.40;;;;;;;;;;5067357;28;20210;-65
2022/08/29 09:11:28;;;;;;;2.10;1.10;;;;;;;;;;5067677;28;20676;-66
2022/08/29 09:14:01;;;;;;;4.88;0.82;;;;;;;;;;5051836;28;20211;-63
2022/08/29 09:16:30;;;;;;;0.63;0.50;;;;;;;;;;5050300;28;20234;-62
2022/08/29 09:18:59;;;;;;;0.88;0.80;;;;;;;;;;5060351;28;20224;-64
2022/08/29 09:21:28;;;;;;;0.98;0.80;;;;;;;;;;5047390;28;20262;-65
2022/08/29 09:23:56;;;;;;;0.63;0.63;;;;;;;;;;5059245;28;20203;-65
2022/08/29 09:26:25;;;;;;;0.85;0.80;;;;;;;;;;5067427;28;20203;-63
2022/08/29 09:28:53;;;;;;;0.82;0.65;;;;;;;;;;5067456;28;20219;-64
2022/08/29 09:31:22;;;;;;;0.73;0.73;;;;;;;;;;5053233;28;20230;-64
2022/08/29 09:33:51;;;;;;;0.93;0.60;;;;;;;;;;5056216;28;20207;-64
2022/08/29 09:36:33;;;;;;;0.82;0.82;;;;;;;;;;5067490;28;20238;-64
2022/08/29 09:39:11;;;;;;;1.35;0.73;;;;;;;;;;5067263;28;20225;-65
2022/08/29 09:41:38;;;;;;;0.88;0.52;;;;;;;;;;5067713;28;20305;-63
2022/08/29 09:44:06;;;;;;;1.00;0.52;;;;;;;;;;5056329;28;20207;-65
2022/08/29 09:46:33;;;;;;;2.80;0.88;;;;;;;;;;5050910;28;20229;-64
2022/08/29 09:49:12;;;;;;;0.95;0.95;;;;;;;;;;5067269;28;20312;-65
2022/08/29 09:51:40;;;;;;;1.00;0.82;;;;;;;;;;5067174;28;20238;-64
2022/08/29 09:54:13;;;;;;;1.35;0.70;;;;;;;;;;5058623;28;20226;-64
2022/08/29 09:56:47;;;;;;;1.10;1.05;;;;;;;;;;5047266;28;20239;-64
2022/08/29 09:59:19;;;;;;;1.38;0.90;;;;;;;;;;5047356;28;20548;-63
2022/08/29 10:01:47;;;;;;;1.95;0.63;;;;;;;;;;5057697;28;20294;-64
2022/08/29 10:04:34;;;;;;;3.13;0.88;;;;;;;;;;5066805;28;20640;-64
2022/08/29 10:07:09;;;;;;;1.13;0.88;;;;;;;;;;5066940;28;20211;-63
2022/08/29 10:09:37;;;;;;;0.75;0.60;;;;;;;;;;5066443;28;20216;-64
2022/08/29 10:12:09;;;;;;;0.70;0.70;;;;;;;;;;5055987;28;20654;-63
2022/08/29 10:14:37;;;;;;;2.78;0.68;;;;;;;;;;5054023;28;20207;-64
2022/08/29 10:19:48;;;;;;;0.70;0.70;;;;;;;;;;5067414;28;20268;-63
2022/08/29 10:22:20;;;;;;;3.25;0.63;;;;;;;;;;5060986;28;20359;-65
2022/08/29 10:24:55;;;;;;;0.65;0.65;;;;;;;;;;5050613;28;20281;-65
2022/08/29 10:27:26;;;;;;;1.05;0.90;;;;;;;;;;5050808;28;20206;-65
2022/08/29 10:29:57;;;;;;;0.70;0.70;;;;;;;;;;5050794;28;20219;-64
2022/08/29 10:32:32;;;;;;;0.90;0.70;;;;;;;;;;5060818;28;20203;-65
2022/08/29 10:35:04;;;;;;;1.05;0.68;;;;;;;;;;5070341;28;20206;-66
2022/08/29 10:37:37;;;;;;;3.13;0.75;;;;;;;;;;5070424;28;20262;-65
2022/08/29 10:40:09;;;;;;;1.95;0.57;;;;;;;;;;5070402;28;20211;-65
2022/08/29 10:42:37;;;;;;;4.22;0.77;;;;;;;;;;5061254;28;20208;-66
2022/08/29 10:45:12;;;;;;;1.70;0.60;;;;;;;;;;5050155;28;20216;-66
2022/08/29 10:47:40;;;;;;;4.93;0.65;;;;;;;;;;5062655;28;20698;-66
2022/08/29 10:50:15;;;;;;;3.65;0.75;;;;;;;;;;5070182;28;20261;-66
2022/08/29 10:52:46;;;;;;;0.75;0.65;;;;;;;;;;5063014;28;20693;-64
2022/08/29 10:55:20;;;;;;;0.68;0.68;;;;;;;;;;5050045;28;20652;-66
2022/08/29 10:57:52;;;;;;;0.75;0.75;;;;;;;;;;5051425;28;20508;-65
2022/08/29 11:00:20;;;;;;;1.33;0.60;;;;;;;;;;5049879;28;20211;-63
2022/08/29 11:02:49;;;;;;;0.98;0.57;;;;;;;;;;5057311;28;20253;-61
2022/08/29 11:05:19;;;;;;;0.80;0.52;;;;;;;;;;5067745;28;20203;-59
2022/08/29 11:07:47;;;;;;;2.80;0.80;;;;;;;;;;5066711;28;20207;-58
2022/08/29 11:10:17;;;;;;;4.90;0.85;;;;;;;;;;5051210;28;20208;-58
2022/08/29 11:12:47;;;;;;;0.57;0.57;;;;;;;;;;5049147;28;20257;-62
2022/08/29 11:15:17;;;;;;;0.93;0.60;;;;;;;;;;5049215;28;20289;-60
2022/08/29 11:17:47;;;;;;;1.27;0.65;;;;;;;;;;5062203;28;20238;-59
2022/08/29 11:20:18;;;;;;;1.05;1.00;;;;;;;;;;5064204;28;20211;-59
2022/08/29 11:22:49;;;;;;;0.50;0.50;;;;;;;;;;5068428;28;20242;-61
2022/08/29 11:25:18;;;;;;;0.52;0.50;;;;;;;;;;5068963;28;20215;-61
2022/08/29 11:27:52;;;;;;;0.95;0.82;;;;;;;;;;5049862;28;20765;-60
2022/08/29 11:30:21;;;;;;;0.70;0.70;;;;;;;;;;5049080;28;20311;-61
2022/08/29 11:32:53;;;;;;;0.70;0.70;;;;;;;;;;5049380;28;20305;-61
2022/08/29 11:35:22;;;;;;;0.70;0.70;;;;;;;;;;5048880;28;21018;-60
2022/08/29 11:38:08;;;;;;;0.70;0.70;;;;;;;;;;5067689;28;20230;-61
2022/08/29 11:40:42;;;;;;;0.70;0.70;;;;;;;;;;5069660;28;20215;-60
2022/08/29 11:43:12;;;;;;;0.65;0.60;;;;;;;;;;5069536;28;20263;-60
2022/08/29 11:45:41;;;;;;;1.85;0.57;;;;;;;;;;5057013;28;20204;-60
2022/08/29 11:48:18;;;;;;;2.05;0.65;;;;;;;;;;5066367;28;20211;-61
2022/08/29 11:50:45;;;;;;;1.27;0.75;;;;;;;;;;5069025;28;20206;-59
2022/08/29 11:53:14;;;;;;;0.90;0.75;;;;;;;;;;5069181;28;20215;-64
2022/08/29 11:55:43;;;;;;;1.23;0.93;;;;;;;;;;5069188;28;20210;-64
2022/08/29 11:58:28;;;;;;;1.50;1.00;;;;;;;;;;5051042;28;20211;-63
2022/08/29 12:00:57;;;;;;;0.73;0.73;;;;;;;;;;5049243;28;20273;-67
2022/08/29 12:03:51;;;;;;;0.70;0.68;;;;;;;;;;5049371;28;20246;-64
2022/08/29 12:06:21;;;;;;;1.20;0.80;;;;;;;;;;5049549;28;20318;-65
2022/08/29 12:09:16;;;;;;;1.30;0.95;;;;;;;;;;5057289;28;20253;-66
2022/08/29 12:12:02;;;;;;;0.82;0.70;;;;;;;;;;5058097;28;20215;-62
2022/08/29 12:14:33;;;;;;;1.52;0.65;;;;;;;;;;5056135;28;20734;-62
2022/08/29 12:17:02;;;;;;;1.77;0.90;;;;;;;;;;5061635;28;20223;-66
2022/08/29 12:19:49;;;;;;;0.60;0.60;;;;;;;;;;5066770;28;20280;-66
2022/08/29 12:22:30;;;;;;;2.95;1.00;;;;;;;;;;5067276;28;20295;-66
2022/08/29 12:24:57;;;;;;;1.45;0.75;;;;;;;;;;5044788;28;20210;-65
2022/08/29 12:27:26;;;;;;;0.88;0.88;;;;;;;;;;5068257;28;20202;-64
2022/08/29 12:29:56;;;;;;;1.90;0.93;;;;;;;;;;5068010;28;20236;-66
2022/08/29 12:32:35;;;;;;;1.75;1.00;;;;;;;;;;5068062;28;20207;-66
2022/08/29 12:35:26;;;;;;;1.75;0.90;;;;;;;;;;5051769;28;20211;-66
2022/08/29 12:38:01;;;;;;;0.77;0.70;;;;;;;;;;5048415;28;20277;-68
2022/08/29 12:40:51;;;;;;;1.02;0.70;;;;;;;;;;5062962;28;20217;-66
2022/08/29 12:43:26;;;;;;;0.65;0.65;;;;;;;;;;5065361;28;20218;-64
2022/08/29 12:45:55;;;;;;;0.85;0.85;;;;;;;;;;5056719;28;20264;-64
2022/08/29 12:48:24;;;;;;;0.70;0.70;;;;;;;;;;5064406;28;20208;-64
2022/08/29 12:50:52;;;;;;;2.58;0.90;;;;;;;;;;5063760;28;20211;-64
2022/08/29 12:53:22;;;;;;;2.22;0.75;;;;;;;;;;5056700;28;20678;-64
2022/08/29 12:55:50;;;;;;;1.65;0.50;;;;;;;;;;5060094;28;20288;-64
2022/08/29 12:58:31;;;;;;;1.10;0.85;;;;;;;;;;5064501;28;20223;-64
2022/08/29 13:00:59;;;;;;;1.25;0.70;;;;;;;;;;5066706;28;20214;-64
2022/08/29 13:03:26;;;;;;;0.43;0.43;;;;;;;;;;5067371;28;20218;-63
2022/08/29 13:06:02;;;;;;;1.95;0.70;;;;;;;;;;5062922;28;20905;-64
2022/08/29 13:08:31;;;;;;;0.70;0.70;;;;;;;;;;5056988;28;20206;-64
2022/08/29 13:11:00;;;;;;;0.68;0.63;;;;;;;;;;5061132;28;20235;-64
2022/08/29 13:13:28;;;;;;;1.10;0.73;;;;;;;;;;5067919;28;20207;-64
2022/08/29 13:15:56;;;;;;;0.90;0.90;;;;;;;;;;5067850;28;20211;-65
2022/08/29 13:18:25;;;;;;;1.02;0.60;;;;;;;;;;5060287;28;20231;-65
2022/08/29 13:21:03;;;;;;;0.68;0.68;;;;;;;;;;5047516;28;20241;-64
2022/08/29 13:23:31;;;;;;;0.65;0.63;;;;;;;;;;5058182;28;20246;-64
2022/08/29 13:26:01;;;;;;;0.50;0.50;;;;;;;;;;5057379;28;20219;-64
2022/08/29 13:28:35;;;;;;;1.77;0.68;;;;;;;;;;5054407;28;20274;-63
2022/08/29 13:31:07;;;;;;;0.60;0.60;;;;;;;;;;5047681;28;20310;-65
2022/08/29 13:33:36;;;;;;;1.85;0.70;;;;;;;;;;5047517;28;20330;-66
2022/08/29 13:36:18;;;;;;;1.13;0.60;;;;;;;;;;5057322;28;20203;-64
2022/08/29 13:38:45;;;;;;;1.02;0.57;;;;;;;;;;5057037;28;20744;-64
2022/08/29 13:41:25;;;;;;;0.60;0.60;;;;;;;;;;5047553;28;20211;-64
2022/08/29 13:43:52;;;;;;;1.95;1.02;;;;;;;;;;5047569;28;20216;-64
2022/08/29 13:46:26;;;;;;;0.93;0.88;;;;;;;;;;5057009;28;20456;-64
2022/08/29 13:48:59;;;;;;;0.57;0.57;;;;;;;;;;5067399;28;20267;-65
2022/08/29 13:51:27;;;;;;;3.25;0.80;;;;;;;;;;5067514;28;20215;-65
2022/08/29 13:53:54;;;;;;;0.50;0.50;;;;;;;;;;5067434;28;20217;-62
2022/08/29 13:56:22;;;;;;;1.67;1.00;;;;;;;;;;5054989;28;20264;-62
2022/08/29 13:58:50;;;;;;;0.60;0.60;;;;;;;;;;5070921;28;20257;-70
2022/08/29 14:01:21;;;;;;;0.95;0.70;;;;;;;;;;5070240;28;20253;-65
2022/08/29 14:03:48;;;;;;;3.35;0.82;;;;;;;;;;5063311;28;20226;-65
2022/08/29 14:06:16;;;;;;;3.03;0.75;;;;;;;;;;5056989;28;20666;-66
2022/08/29 14:08:43;;;;;;;0.60;0.60;;;;;;;;;;5057250;28;20204;-65
2022/08/29 14:11:11;;;;;;;0.85;0.52;;;;;;;;;;5057576;28;20199;-65
2022/08/29 14:13:38;;;;;;;0.60;0.60;;;;;;;;;;5059266;28;20338;-66
2022/08/29 14:16:05;;;;;;;1.65;0.95;;;;;;;;;;5054923;28;20261;-66
2022/08/29 14:18:32;;;;;;;1.20;0.95;;;;;;;;;;5068621;28;20235;-66
2022/08/29 14:20:59;;;;;;;0.95;0.90;;;;;;;;;;5055308;28;20332;-66
2022/08/29 14:23:27;;;;;;;0.63;0.63;;;;;;;;;;5070120;28;20242;-65
2022/08/29 14:25:54;;;;;;;0.60;0.60;;;;;;;;;;5066038;28;20277;-64
2022/08/29 14:28:21;;;;;;;0.70;0.70;;;;;;;;;;5063274;28;20207;-66
2022/08/29 14:30:48;;;;;;;0.63;0.63;;;;;;;;;;5067380;28;20257;-67
2022/08/29 14:33:15;;;;;;;0.75;0.75;;;;;;;;;;5050365;28;20211;-65
2022/08/29 14:35:42;;;;;;;0.63;0.63;;;;;;;;;;5051168;28;20624;-65
2022/08/29 14:38:09;;;;;;;0.93;0.90;;;;;;;;;;5057920;28;20227;-65
2022/08/29 14:40:38;;;;;;;0.60;0.60;;;;;;;;;;5052102;28;20227;-65
2022/08/29 14:43:06;;;;;;;0.70;0.70;;;;;;;;;;5049824;28;20219;-66
2022/08/29 14:45:33;;;;;;;0.70;0.70;;;;;;;;;;5068552;28;20211;-65
2022/08/29 14:48:00;;;;;;;0.90;0.85;;;;;;;;;;5059031;28;20617;-67
2022/08/29 14:50:28;;;;;;;0.82;0.70;;;;;;;;;;5049758;28;20214;-66
2022/08/29 14:52:55;;;;;;;0.68;0.68;;;;;;;;;;5049879;28;20380;-66
2022/08/29 14:55:22;;;;;;;3.03;0.90;;;;;;;;;;5065363;28;20211;-65
2022/08/29 14:57:50;;;;;;;1.00;0.95;;;;;;;;;;5068309;28;20226;-66